ZSAMTNCM

Guest
Details From ZSAM - Gaoqi
To TNCM - St Maarten - Princess Juliana Intl
Flight Number -
Tags Generated
Created
Modified
Stats Distance 8,253 nm / 15,284 km
Max Altitude 0 ft / 0 m
Waypoints 5
Social Downloads 1
Likes 0
Share VATSIM

Download

Looking for another format? Having issues loading an existing format? Contact us
Advertisement - Login to hide

Notes

Generated

Route

ZSAM MADUK LERMI PJD TNCM

ID Type Via Altitude Latitude Longitude Leg Dist Tot Dist Heading (true) Name
O ZSAM APT - 0 ft / 0 m 24.53459˚ 118.11452˚ - 0 nm - -
MADUK FIX - 0 ft / 0 m 31.71833˚ 118.60500˚ 432 nm 432 nm 3° / 4° -
LERMI FIX - 0 ft / 0 m 60.83333˚ 120.63333˚ 1750 nm 2182 nm 2° / 4° -
PJD NDB - 0 ft / 0 m 18.03833˚ -63.11833˚ 6070 nm 8252 nm 4° / 178° ST MAARTEN NDB
O TNCM APT - 0 ft / 0 m 18.03937˚ -63.11961˚ 0 nm 8252 nm 310° / 310° -

Altitude Profile

Advertisement - Login to hide

Weather


0- 5 10 15 20 25 30 35+ Temperature / ° C

Clouds and Precipitation
Forecast for 2018-05-21 18:00 UTC. Updated 3 hours ago

Ground ~20,000 ft ~40,000 ft Winds

ZSAM

Details ICAO ZSAM (XMN)
Name GAOQI
Region China
Timezone Asia/Shanghai (UTC+8.0)
Stats Elevation 59 ft / 18 m (AMSL)
Location 24.544000° 118.127742°
Runways 1
Magnetic Variation 3.936° W

METAR

ZSAM 212000Z 10002MPS 6000 BKN023 26/24 Q1010 NOSIG

Decode

TAF

Not found

Departure Runways

ID Width Length Bearing (true) Bearing (mag) Surface Threshold Offset Overrun Length
05 148 ft / 45 m 11,147 ft / 3,398 m 51.96° 55.90° Asphalt 490 ft / 149 m 110 ft / 34 m
23 148 ft / 45 m 11,147 ft / 3,398 m 231.97° 235.91° Asphalt 660 ft / 201 m 190 ft / 58 m

TNCM

Details ICAO TNCM (SXM)
Name St Maarten - Princess Juliana Intl
Region Caribbean Netherlands, Aruba, Curaçao, Sint Maarten
Timezone Unknown (UTC+0.0)
Stats Elevation 12 ft / 4 m (AMSL)
Location 18.040889° -63.108974°
Runways 1
Magnetic Variation 14.337° W

METAR

TNCM 212000Z 09013KT 050V130 9999 FEW021 29/21 Q1015 A2999 NOSIG

Decode

TAF

TAF TNCM 211720Z 2118/2218 08015KT P6SM VCSH SCT018 FM212300 09008KT P6SM FEW018 FM221200 10012KT P6SM VCSH SCT018

Decode

Destination Runways

ID Width Length Bearing (true) Bearing (mag) Surface Threshold Offset Overrun Length
10 148 ft / 45 m 7,464 ft / 2,275 m 81.43° 95.77° Asphalt 0 ft / 0 m 151 ft / 46 m
28 148 ft / 45 m 7,464 ft / 2,275 m 261.44° 275.78° Asphalt 397 ft / 121 m 0 ft / 0 m